»·PEaware :: N74KW 2O7-3L2

N74KW :: 2O7-3L2

FLIGHT INFORMATION

Flight Status: Arrived
Operator: Privately registered:
United States
More flights under this callsign
Pilot: Charles C. (26995)
Aircraft: MCDONNELL-DOUGLAS SKYTRAIN C-47
(DC3)
More flights by this aircraft type
Origin: 2O7 Independence
United States
Destination: 3L2 Sky Ranch
United States
More flights between these airports :: More routes between these airports
Route: O26
File this flight plan on PilotEdge
Remarks:
Altitude:
(Current/Filed)
9,500ft
Speed:
(Current/Filed)
150kts
Departed: 17-Aug-20 06:49 AM
Arrived: 17-Aug-20 07:44 AM
Distance/Time
Traveled:
139nm/0:55
Distance/Time
To Go:
Arrived

Flight Plot

Page will automatically refresh every two minutes.

Flight plan parsing failed; only flown route is shown


Map Options




Map Legend


Flown Route
Filed Route
Departure Airport
Arrival Airport
Navaid (VOR, NDB)
Fix

Horizontal Profiles

Position Reports

Time Latitude Longitude Heading Altitude Ground
Speed
17-Aug-20 06:47 36.810657 -118.202794 156 3907ft 0kts
17-Aug-20 06:48 36.811256 -118.202325 332 3904ft 10kts
17-Aug-20 06:49 36.832592 -118.207123 33 4306ft 110kts
17-Aug-20 06:50 36.819390 -118.179934 184 4855ft 128kts
17-Aug-20 06:50 36.788258 -118.178289 158 5259ft 140kts
17-Aug-20 06:52 36.746396 -118.156526 152 5937ft 142kts
17-Aug-20 06:53 36.711448 -118.132820 151 6590ft 144kts
17-Aug-20 06:53 36.682203 -118.112823 151 7133ft 143kts
17-Aug-20 06:55 36.641689 -118.085140 150 7926ft 142kts
17-Aug-20 06:55 36.612942 -118.065515 150 8517ft 140kts
17-Aug-20 06:57 36.582437 -118.027729 111 9278ft 138kts
17-Aug-20 06:57 36.570794 -117.991336 110 9562ft 153kts
17-Aug-20 06:58 36.554115 -117.938526 110 9558ft 167kts
17-Aug-20 07:00 36.534434 -117.876282 110 9530ft 168kts
17-Aug-20 07:00 36.520186 -117.831298 110 9509ft 168kts
17-Aug-20 07:01 36.502931 -117.776915 110 9479ft 168kts
17-Aug-20 07:02 36.485989 -117.722679 110 9458ft 168kts
17-Aug-20 07:03 36.468975 -117.668645 110 9452ft 167kts
17-Aug-20 07:04 36.451882 -117.614909 110 9452ft 167kts
17-Aug-20 07:05 36.434783 -117.561322 110 9452ft 167kts
17-Aug-20 07:06 36.417694 -117.507874 110 9452ft 167kts
17-Aug-20 07:07 36.400526 -117.454285 110 9452ft 167kts
17-Aug-20 07:08 36.383359 -117.400792 110 9452ft 167kts
17-Aug-20 07:09 36.366148 -117.347263 111 9452ft 167kts
17-Aug-20 07:10 36.348908 -117.293743 111 9452ft 167kts
17-Aug-20 07:11 36.331669 -117.240322 111 9452ft 167kts
17-Aug-20 07:12 36.314408 -117.186930 111 9452ft 167kts
17-Aug-20 07:13 36.297094 -117.133473 111 9452ft 167kts
17-Aug-20 07:14 36.279796 -117.080116 112 9470ft 165kts
17-Aug-20 07:15 36.262530 -117.027037 111 9471ft 166kts
17-Aug-20 07:16 36.245303 -116.974137 111 9472ft 166kts
17-Aug-20 07:17 36.227997 -116.921089 111 9474ft 166kts
17-Aug-20 07:18 36.210619 -116.867911 111 9477ft 166kts
17-Aug-20 07:19 36.193278 -116.814943 111 9480ft 166kts
17-Aug-20 07:20 36.175893 -116.761936 111 9481ft 166kts
17-Aug-20 07:21 36.158438 -116.708811 111 9479ft 166kts
17-Aug-20 07:22 36.140947 -116.655672 111 9479ft 166kts
17-Aug-20 07:23 36.123446 -116.602595 111 9483ft 166kts
17-Aug-20 07:24 36.105931 -116.549572 111 9441ft 169kts
17-Aug-20 07:25 36.087335 -116.493388 111 9118ft 180kts
17-Aug-20 07:26 36.068221 -116.435755 111 8842ft 180kts
17-Aug-20 07:27 36.049149 -116.378373 111 8564ft 179kts
17-Aug-20 07:28 36.030055 -116.321048 111 8287ft 179kts
17-Aug-20 07:29 36.011090 -116.264184 111 8019ft 178kts
17-Aug-20 07:30 35.992221 -116.207710 111 7757ft 177kts
17-Aug-20 07:31 35.972592 -116.151914 112 7500ft 176kts
17-Aug-20 07:32 35.953653 -116.096336 111 7246ft 176kts
17-Aug-20 07:33 35.934864 -116.040508 111 6992ft 176kts
17-Aug-20 07:34 35.916064 -115.984740 111 6743ft 175kts
17-Aug-20 07:35 35.897123 -115.928657 111 6494ft 175kts
17-Aug-20 07:36 35.878179 -115.872673 111 6240ft 176kts
17-Aug-20 07:37 35.859178 -115.816605 111 5896ft 183kts
17-Aug-20 07:38 35.836871 -115.756611 113 5085ft 195kts
17-Aug-20 07:39 35.814647 -115.701414 96 4167ft 183kts
17-Aug-20 07:40 35.806527 -115.643480 125 3462ft 162kts
17-Aug-20 07:41 35.803471 -115.656312 55 3084ft 126kts
17-Aug-20 07:42 35.794312 -115.628156 129 2592ft 74kts
17-Aug-20 07:43 35.788752 -115.620659 119 2580ft 0kts
17-Aug-20 07:44 35.788752 -115.620659 119 2580ft 0kts
17-Aug-20 07:45 35.788752 -115.620659 119 2580ft 0kts
17-Aug-20 07:46 35.788752 -115.620659 119 2580ft 0kts

Navigation Log

Ident Type
Flight plan parsing failed, navigation log unavailable